sensor_id;sensor_type;location;lat;lon;timestamp;pressure;altitude;pressure_sealevel;temperature;humidity
44138;BME280;29800;55.942;37.314;2023-11-21T00:00:38;99058.31;;;-6.40;56.47
44138;BME280;29800;55.942;37.314;2023-11-21T00:03:04;99056.38;;;-6.30;56.35
44138;BME280;29800;55.942;37.314;2023-11-21T00:05:30;99060.94;;;-6.14;56.14
44138;BME280;29800;55.942;37.314;2023-11-21T00:07:56;99049.03;;;-6.01;55.80
44138;BME280;29800;55.942;37.314;2023-11-21T00:10:22;99057.19;;;-5.95;55.56
44138;BME280;29800;55.942;37.314;2023-11-21T00:12:48;99048.31;;;-6.03;55.40
44138;BME280;29800;55.942;37.314;2023-11-21T00:15:14;99049.69;;;-5.99;55.50
44138;BME280;29800;55.942;37.314;2023-11-21T00:17:41;99048.00;;;-5.92;55.25
44138;BME280;29800;55.942;37.314;2023-11-21T00:20:09;99054.38;;;-5.85;54.81
44138;BME280;29800;55.942;37.314;2023-11-21T00:22:39;99052.72;;;-5.78;55.37
44138;BME280;29800;55.942;37.314;2023-11-21T00:25:06;99054.56;;;-5.78;54.29
44138;BME280;29800;55.942;37.314;2023-11-21T00:27:35;99057.06;;;-5.77;54.49
44138;BME280;29800;55.942;37.314;2023-11-21T00:30:02;99061.78;;;-5.70;53.96
44138;BME280;29800;55.942;37.314;2023-11-21T00:32:33;99056.44;;;-5.70;54.18
44138;BME280;29800;55.942;37.314;2023-11-21T00:35:00;99058.59;;;-5.66;53.94
44138;BME280;29800;55.942;37.314;2023-11-21T00:37:30;99057.78;;;-5.58;54.26
44138;BME280;29800;55.942;37.314;2023-11-21T00:39:58;99057.81;;;-5.50;53.82
44138;BME280;29800;55.942;37.314;2023-11-21T00:42:24;99061.47;;;-5.43;53.37
44138;BME280;29800;55.942;37.314;2023-11-21T00:44:51;99055.81;;;-5.40;53.24
44138;BME280;29800;55.942;37.314;2023-11-21T00:47:17;99052.31;;;-5.40;52.92
44138;BME280;29800;55.942;37.314;2023-11-21T00:49:43;99055.00;;;-5.40;53.02
44138;BME280;29800;55.942;37.314;2023-11-21T00:52:09;99054.47;;;-5.52;52.63
44138;BME280;29800;55.942;37.314;2023-11-21T00:54:35;99056.63;;;-5.64;53.34
44138;BME280;29800;55.942;37.314;2023-11-21T00:57:02;99049.75;;;-5.66;53.51
44138;BME280;29800;55.942;37.314;2023-11-21T00:59:29;99046.47;;;-5.60;53.02
44138;BME280;29800;55.942;37.314;2023-11-21T01:01:56;99055.63;;;-5.55;53.47
44138;BME280;29800;55.942;37.314;2023-11-21T01:04:22;99048.50;;;-5.46;52.54
44138;BME280;29800;55.942;37.314;2023-11-21T01:06:48;99048.84;;;-5.41;52.30
44138;BME280;29800;55.942;37.314;2023-11-21T01:09:14;99045.31;;;-5.41;52.37
44138;BME280;29800;55.942;37.314;2023-11-21T01:11:40;99043.81;;;-5.44;52.41
44138;BME280;29800;55.942;37.314;2023-11-21T01:14:07;99044.47;;;-5.42;52.69
44138;BME280;29800;55.942;37.314;2023-11-21T01:16:34;99040.50;;;-5.29;52.47
44138;BME280;29800;55.942;37.314;2023-11-21T01:19:03;99040.50;;;-5.29;51.40
44138;BME280;29800;55.942;37.314;2023-11-21T01:21:30;99043.34;;;-5.31;51.74
44138;BME280;29800;55.942;37.314;2023-11-21T01:23:57;99043.84;;;-5.36;51.67
44138;BME280;29800;55.942;37.314;2023-11-21T01:26:23;99048.66;;;-5.47;51.37
44138;BME280;29800;55.942;37.314;2023-11-21T01:28:49;99051.13;;;-5.62;51.57
44138;BME280;29800;55.942;37.314;2023-11-21T01:31:15;99049.44;;;-5.72;51.43
44138;BME280;29800;55.942;37.314;2023-11-21T01:33:41;99046.41;;;-5.77;51.68
44138;BME280;29800;55.942;37.314;2023-11-21T01:36:08;99054.72;;;-5.80;51.81
44138;BME280;29800;55.942;37.314;2023-11-21T01:38:34;99048.03;;;-5.84;51.31
44138;BME280;29800;55.942;37.314;2023-11-21T01:41:00;99044.41;;;-5.75;51.75
44138;BME280;29800;55.942;37.314;2023-11-21T01:43:27;99059.09;;;-5.70;51.57
44138;BME280;29800;55.942;37.314;2023-11-21T01:45:57;99059.78;;;-5.68;51.08
44138;BME280;29800;55.942;37.314;2023-11-21T01:48:27;99056.44;;;-5.70;51.40
44138;BME280;29800;55.942;37.314;2023-11-21T01:50:53;99060.09;;;-5.72;51.50
44138;BME280;29800;55.942;37.314;2023-11-21T01:53:20;99050.44;;;-5.64;51.00
44138;BME280;29800;55.942;37.314;2023-11-21T01:55:46;99052.44;;;-5.66;51.03
44138;BME280;29800;55.942;37.314;2023-11-21T01:58:12;99047.41;;;-5.69;51.07
44138;BME280;29800;55.942;37.314;2023-11-21T02:00:39;99057.59;;;-5.73;51.29
44138;BME280;29800;55.942;37.314;2023-11-21T02:03:05;99055.72;;;-5.81;51.66
44138;BME280;29800;55.942;37.314;2023-11-21T02:05:33;99051.41;;;-5.82;51.39
44138;BME280;29800;55.942;37.314;2023-11-21T02:07:59;99053.75;;;-5.79;51.26
44138;BME280;29800;55.942;37.314;2023-11-21T02:10:26;99049.75;;;-5.75;51.81
44138;BME280;29800;55.942;37.314;2023-11-21T02:12:52;99047.22;;;-5.84;51.21
44138;BME280;29800;55.942;37.314;2023-11-21T02:15:20;99050.69;;;-5.92;51.64
44138;BME280;29800;55.942;37.314;2023-11-21T02:17:49;99050.47;;;-6.07;52.22
44138;BME280;29800;55.942;37.314;2023-11-21T02:20:22;99042.97;;;-6.12;52.12
44138;BME280;29800;55.942;37.314;2023-11-21T02:22:57;99051.69;;;-6.01;52.56
44138;BME280;29800;55.942;37.314;2023-11-21T02:25:27;99048.72;;;-5.98;52.19
44138;BME280;29800;55.942;37.314;2023-11-21T02:27:57;99046.22;;;-5.83;52.00
44138;BME280;29800;55.942;37.314;2023-11-21T02:30:24;99048.19;;;-5.85;51.86
44138;BME280;29800;55.942;37.314;2023-11-21T02:33:00;99047.06;;;-5.83;51.71
44138;BME280;29800;55.942;37.314;2023-11-21T02:35:27;99049.06;;;-5.85;51.86
44138;BME280;29800;55.942;37.314;2023-11-21T02:37:54;99047.69;;;-5.89;52.02
44138;BME280;29800;55.942;37.314;2023-11-21T02:40:20;99050.69;;;-5.84;51.80
44138;BME280;29800;55.942;37.314;2023-11-21T02:42:47;99054.72;;;-5.80;52.06
44138;BME280;29800;55.942;37.314;2023-11-21T02:45:15;99053.94;;;-5.72;52.00
44138;BME280;29800;55.942;37.314;2023-11-21T02:47:44;99049.94;;;-5.68;52.14
44138;BME280;29800;55.942;37.314;2023-11-21T02:50:11;99060.91;;;-5.71;51.73
44138;BME280;29800;55.942;37.314;2023-11-21T02:52:38;99057.94;;;-5.68;51.93
44138;BME280;29800;55.942;37.314;2023-11-21T02:55:06;99060.25;;;-5.73;52.07
44138;BME280;29800;55.942;37.314;2023-11-21T02:57:35;99065.56;;;-5.81;52.27
44138;BME280;29800;55.942;37.314;2023-11-21T03:00:02;99062.56;;;-5.78;52.82
44138;BME280;29800;55.942;37.314;2023-11-21T03:02:32;99067.41;;;-5.74;51.90
44138;BME280;29800;55.942;37.314;2023-11-21T03:04:58;99072.06;;;-5.76;52.28
44138;BME280;29800;55.942;37.314;2023-11-21T03:07:24;99074.22;;;-5.79;52.28
44138;BME280;29800;55.942;37.314;2023-11-21T03:09:51;99080.72;;;-5.82;52.49
44138;BME280;29800;55.942;37.314;2023-11-21T03:12:18;99084.06;;;-5.80;52.45
44138;BME280;29800;55.942;37.314;2023-11-21T03:14:45;99082.06;;;-5.78;52.21
44138;BME280;29800;55.942;37.314;2023-11-21T03:17:11;99086.56;;;-5.78;52.57
44138;BME280;29800;55.942;37.314;2023-11-21T03:19:38;99080.75;;;-5.74;52.36
44138;BME280;29800;55.942;37.314;2023-11-21T03:22:04;99083.75;;;-5.77;52.29
44138;BME280;29800;55.942;37.314;2023-11-21T03:24:30;99084.72;;;-5.78;52.34
44138;BME280;29800;55.942;37.314;2023-11-21T03:26:56;99087.56;;;-5.71;52.96
44138;BME280;29800;55.942;37.314;2023-11-21T03:29:22;99079.59;;;-5.63;52.32
44138;BME280;29800;55.942;37.314;2023-11-21T03:31:48;99074.09;;;-5.61;52.39
44138;BME280;29800;55.942;37.314;2023-11-21T03:34:23;99071.13;;;-5.58;51.81
44138;BME280;29800;55.942;37.314;2023-11-21T03:36:49;99069.44;;;-5.59;51.93
44138;BME280;29800;55.942;37.314;2023-11-21T03:39:15;99074.28;;;-5.63;51.91
44138;BME280;29800;55.942;37.314;2023-11-21T03:41:43;99070.91;;;-5.73;52.30
44138;BME280;29800;55.942;37.314;2023-11-21T03:44:09;99076.59;;;-5.68;52.74
44138;BME280;29800;55.942;37.314;2023-11-21T03:46:36;99075.44;;;-5.65;52.19
44138;BME280;29800;55.942;37.314;2023-11-21T03:49:02;99071.13;;;-5.58;52.30
44138;BME280;29800;55.942;37.314;2023-11-21T03:51:28;99075.81;;;-5.52;52.63
44138;BME280;29800;55.942;37.314;2023-11-21T03:53:54;99087.31;;;-5.43;51.84
44138;BME280;29800;55.942;37.314;2023-11-21T03:56:21;99076.66;;;-5.43;51.99
44138;BME280;29800;55.942;37.314;2023-11-21T03:58:49;99084.66;;;-5.43;51.68
44138;BME280;29800;55.942;37.314;2023-11-21T04:01:23;99082.81;;;-5.43;51.81
44138;BME280;29800;55.942;37.314;2023-11-21T04:03:50;99090.47;;;-5.48;51.73
44138;BME280;29800;55.942;37.314;2023-11-21T04:06:17;99090.31;;;-5.46;51.74
44138;BME280;29800;55.942;37.314;2023-11-21T04:08:46;99082.78;;;-5.51;51.50
44138;BME280;29800;55.942;37.314;2023-11-21T04:11:12;99088.13;;;-5.51;51.74
44138;BME280;29800;55.942;37.314;2023-11-21T04:13:39;99086.47;;;-5.52;51.72
44138;BME280;29800;55.942;37.314;2023-11-21T04:16:07;99081.16;;;-5.52;51.94
44138;BME280;29800;55.942;37.314;2023-11-21T04:18:35;99076.97;;;-5.46;51.94
44138;BME280;29800;55.942;37.314;2023-11-21T04:21:01;99084.81;;;-5.45;51.92
44138;BME280;29800;55.942;37.314;2023-11-21T04:23:29;99094.47;;;-5.52;51.61
44138;BME280;29800;55.942;37.314;2023-11-21T04:25:55;99087.28;;;-5.60;51.56
44138;BME280;29800;55.942;37.314;2023-11-21T04:28:23;99099.09;;;-5.70;52.06
44138;BME280;29800;55.942;37.314;2023-11-21T04:30:52;99103.38;;;-5.78;52.35
44138;BME280;29800;55.942;37.314;2023-11-21T04:33:19;99100.69;;;-5.86;52.49
44138;BME280;29800;55.942;37.314;2023-11-21T04:35:45;99092.91;;;-5.71;52.58
44138;BME280;29800;55.942;37.314;2023-11-21T04:38:12;99098.28;;;-5.63;52.26
44138;BME280;29800;55.942;37.314;2023-11-21T04:40:38;99102.94;;;-5.65;52.33
44138;BME280;29800;55.942;37.314;2023-11-21T04:43:04;99100.25;;;-5.73;52.27
44138;BME280;29800;55.942;37.314;2023-11-21T04:45:30;99094.06;;;-5.82;52.41
44138;BME280;29800;55.942;37.314;2023-11-21T04:47:56;99104.69;;;-5.90;52.69
44138;BME280;29800;55.942;37.314;2023-11-21T04:50:22;99114.31;;;-5.89;53.01
44138;BME280;29800;55.942;37.314;2023-11-21T04:52:48;99112.41;;;-5.79;52.65
44138;BME280;29800;55.942;37.314;2023-11-21T04:55:14;99120.78;;;-5.65;52.86
44138;BME280;29800;55.942;37.314;2023-11-21T04:57:41;99115.50;;;-5.49;53.05
44138;BME280;29800;55.942;37.314;2023-11-21T05:00:09;99118.84;;;-5.39;52.27
44138;BME280;29800;55.942;37.314;2023-11-21T05:02:36;99121.34;;;-5.45;51.97
44138;BME280;29800;55.942;37.314;2023-11-21T05:05:04;99127.03;;;-5.40;51.77
44138;BME280;29800;55.942;37.314;2023-11-21T05:07:32;99126.19;;;-5.41;51.82
44138;BME280;29800;55.942;37.314;2023-11-21T05:09:58;99126.19;;;-5.41;51.82
44138;BME280;29800;55.942;37.314;2023-11-21T05:12:24;99120.53;;;-5.38;52.05
44138;BME280;29800;55.942;37.314;2023-11-21T05:14:51;99126.41;;;-5.26;52.00
44138;BME280;29800;55.942;37.314;2023-11-21T05:17:17;99139.59;;;-5.16;51.43
44138;BME280;29800;55.942;37.314;2023-11-21T05:19:43;99129.25;;;-5.19;51.29
44138;BME280;29800;55.942;37.314;2023-11-21T05:22:11;99133.91;;;-5.21;51.41
44138;BME280;29800;55.942;37.314;2023-11-21T05:24:38;99137.06;;;-5.26;51.55
44138;BME280;29800;55.942;37.314;2023-11-21T05:27:05;99139.09;;;-5.20;52.01
44138;BME280;29800;55.942;37.314;2023-11-21T05:29:31;99134.25;;;-5.16;51.72
44138;BME280;29800;55.942;37.314;2023-11-21T05:31:57;99134.94;;;-5.06;51.51
44138;BME280;29800;55.942;37.314;2023-11-21T05:34:24;99136.28;;;-5.02;51.59
44138;BME280;29800;55.942;37.314;2023-11-21T05:36:50;99137.94;;;-5.01;51.17
44138;BME280;29800;55.942;37.314;2023-11-21T05:39:16;99134.94;;;-5.06;51.43
44138;BME280;29800;55.942;37.314;2023-11-21T05:41:46;99132.94;;;-5.04;51.67
44138;BME280;29800;55.942;37.314;2023-11-21T05:44:12;99120.28;;;-5.02;51.67
44138;BME280;29800;55.942;37.314;2023-11-21T05:46:40;99123.09;;;-5.03;51.39
44138;BME280;29800;55.942;37.314;2023-11-21T05:49:09;99125.94;;;-4.96;52.10
44138;BME280;29800;55.942;37.314;2023-11-21T05:51:36;99124.28;;;-4.89;51.34
44138;BME280;29800;55.942;37.314;2023-11-21T05:54:03;99123.28;;;-4.80;51.36
44138;BME280;29800;55.942;37.314;2023-11-21T05:56:29;99120.63;;;-4.80;51.28
44138;BME280;29800;55.942;37.314;2023-11-21T05:58:55;99117.63;;;-4.77;51.82
44138;BME280;29800;55.942;37.314;2023-11-21T06:01:21;99122.81;;;-4.67;51.78
44138;BME280;29800;55.942;37.314;2023-11-21T06:03:48;99125.28;;;-4.66;51.33
44138;BME280;29800;55.942;37.314;2023-11-21T06:06:14;99136.16;;;-4.67;50.37
44138;BME280;29800;55.942;37.314;2023-11-21T06:08:40;99127.28;;;-4.68;51.39
44138;BME280;29800;55.942;37.314;2023-11-21T06:11:06;99121.94;;;-4.68;50.97
44138;BME280;29800;55.942;37.314;2023-11-21T06:13:32;99125.97;;;-4.72;51.30
44138;BME280;29800;55.942;37.314;2023-11-21T06:15:58;99135.31;;;-4.68;50.94
44138;BME280;29800;55.942;37.314;2023-11-21T06:18:24;99142.97;;;-4.65;50.64
44138;BME280;29800;55.942;37.314;2023-11-21T06:20:50;99139.16;;;-4.70;50.91
44138;BME280;29800;55.942;37.314;2023-11-21T06:23:18;99145.66;;;-4.73;50.82
44138;BME280;29800;55.942;37.314;2023-11-21T06:25:44;99130.97;;;-4.77;50.67
44138;BME280;29800;55.942;37.314;2023-11-21T06:28:11;99134.63;;;-4.70;51.30
44138;BME280;29800;55.942;37.314;2023-11-21T06:30:37;99132.31;;;-4.65;50.52
44138;BME280;29800;55.942;37.314;2023-11-21T06:33:04;99139.16;;;-4.62;51.15
44138;BME280;29800;55.942;37.314;2023-11-21T06:35:29;99135.63;;;-4.63;50.45
44138;BME280;29800;55.942;37.314;2023-11-21T06:37:58;99146.69;;;-4.57;51.03
44138;BME280;29800;55.942;37.314;2023-11-21T06:40:24;99138.13;;;-4.69;50.67
44138;BME280;29800;55.942;37.314;2023-11-21T06:42:50;99142.16;;;-4.73;50.47
44138;BME280;29800;55.942;37.314;2023-11-21T06:45:17;99136.31;;;-4.85;50.94
44138;BME280;29800;55.942;37.314;2023-11-21T06:47:43;99138.63;;;-4.90;50.99
44138;BME280;29800;55.942;37.314;2023-11-21T06:50:10;99140.97;;;-4.87;51.09
44138;BME280;29800;55.942;37.314;2023-11-21T06:52:36;99141.97;;;-4.88;50.77
44138;BME280;29800;55.942;37.314;2023-11-21T06:55:02;99144.81;;;-4.82;51.09
44138;BME280;29800;55.942;37.314;2023-11-21T06:57:31;99141.28;;;-4.82;51.20
44138;BME280;29800;55.942;37.314;2023-11-21T06:59:58;99143.47;;;-4.86;51.03
44138;BME280;29800;55.942;37.314;2023-11-21T07:02:24;99145.63;;;-4.97;50.88
44138;BME280;29800;55.942;37.314;2023-11-21T07:04:50;99154.59;;;-5.07;51.63
44138;BME280;29800;55.942;37.314;2023-11-21T07:07:18;99153.31;;;-4.94;52.08
44138;BME280;29800;55.942;37.314;2023-11-21T07:09:44;99160.00;;;-4.74;51.63
44138;BME280;29800;55.942;37.314;2023-11-21T07:12:10;99154.31;;;-4.63;51.08
44138;BME280;29800;55.942;37.314;2023-11-21T07:14:37;99156.84;;;-4.53;50.81
44138;BME280;29800;55.942;37.314;2023-11-21T07:17:05;99154.16;;;-4.53;50.97
44138;BME280;29800;55.942;37.314;2023-11-21T07:19:32;99157.34;;;-4.41;51.06
44138;BME280;29800;55.942;37.314;2023-11-21T07:21:58;99152.19;;;-4.43;51.03
44138;BME280;29800;55.942;37.314;2023-11-21T07:24:24;99154.16;;;-4.28;50.89
44138;BME280;29800;55.942;37.314;2023-11-21T07:26:50;99166.00;;;-4.14;50.52
44138;BME280;29800;55.942;37.314;2023-11-21T07:29:16;99164.31;;;-4.07;50.40
44138;BME280;29800;55.942;37.314;2023-11-21T07:31:43;99160.84;;;-4.16;50.81
44138;BME280;29800;55.942;37.314;2023-11-21T07:34:09;99159.31;;;-4.27;50.53
44138;BME280;29800;55.942;37.314;2023-11-21T07:36:36;99156.50;;;-4.33;50.69
44138;BME280;29800;55.942;37.314;2023-11-21T07:39:02;99165.53;;;-4.26;50.89
44138;BME280;29800;55.942;37.314;2023-11-21T07:41:29;99163.69;;;-4.26;51.78
44138;BME280;29800;55.942;37.314;2023-11-21T07:43:55;99171.53;;;-4.24;51.32
44138;BME280;29800;55.942;37.314;2023-11-21T07:46:22;99156.13;;;-4.14;52.10
44138;BME280;29800;55.942;37.314;2023-11-21T07:48:48;99158.94;;;-3.99;51.74
44138;BME280;29800;55.942;37.314;2023-11-21T07:51:14;99162.97;;;-3.95;51.42
44138;BME280;29800;55.942;37.314;2023-11-21T07:53:40;99165.16;;;-3.98;51.14
44138;BME280;29800;55.942;37.314;2023-11-21T07:56:08;99169.31;;;-3.96;51.40
44138;BME280;29800;55.942;37.314;2023-11-21T07:58:35;99169.31;;;-3.96;51.20
44138;BME280;29800;55.942;37.314;2023-11-21T08:01:03;99172.31;;;-3.99;50.99
44138;BME280;29800;55.942;37.314;2023-11-21T08:03:30;99169.19;;;-4.11;51.18
44138;BME280;29800;55.942;37.314;2023-11-21T08:05:59;99177.38;;;-4.20;51.32
44138;BME280;29800;55.942;37.314;2023-11-21T08:08:26;99171.38;;;-4.31;51.95
44138;BME280;29800;55.942;37.314;2023-11-21T08:10:53;99164.69;;;-4.35;52.40
44138;BME280;29800;55.942;37.314;2023-11-21T08:13:24;99166.34;;;-4.26;52.34
44138;BME280;29800;55.942;37.314;2023-11-21T08:15:53;99169.50;;;-4.22;51.31
44138;BME280;29800;55.942;37.314;2023-11-21T08:18:20;99155.66;;;-4.17;52.08
44138;BME280;29800;55.942;37.314;2023-11-21T08:20:47;99152.28;;;-4.03;52.09
44138;BME280;29800;55.942;37.314;2023-11-21T08:23:16;99157.94;;;-3.90;51.30
44138;BME280;29800;55.942;37.314;2023-11-21T08:25:46;99157.44;;;-3.93;51.68
44138;BME280;29800;55.942;37.314;2023-11-21T08:28:12;99151.97;;;-4.00;51.36
44138;BME280;29800;55.942;37.314;2023-11-21T08:30:42;99136.09;;;-4.10;50.76
44138;BME280;29800;55.942;37.314;2023-11-21T08:33:08;99140.28;;;-4.15;51.44
44138;BME280;29800;55.942;37.314;2023-11-21T08:35:35;99139.44;;;-4.16;51.86
44138;BME280;29800;55.942;37.314;2023-11-21T08:38:02;99136.44;;;-4.13;52.04
44138;BME280;29800;55.942;37.314;2023-11-21T08:40:29;99138.75;;;-4.01;51.75
44138;BME280;29800;55.942;37.314;2023-11-21T08:42:56;99136.38;;;-3.88;51.61
44138;BME280;29800;55.942;37.314;2023-11-21T08:45:25;99138.88;;;-3.86;51.01
44138;BME280;29800;55.942;37.314;2023-11-21T08:47:52;99131.00;;;-3.80;51.78
44138;BME280;29800;55.942;37.314;2023-11-21T08:50:18;99139.19;;;-3.81;50.79
44138;BME280;29800;55.942;37.314;2023-11-21T08:52:45;99138.56;;;-3.92;51.04
44138;BME280;29800;55.942;37.314;2023-11-21T08:55:12;99136.22;;;-3.95;50.73
44138;BME280;29800;55.942;37.314;2023-11-21T08:57:39;99127.88;;;-4.00;50.90
44138;BME280;29800;55.942;37.314;2023-11-21T09:00:09;99136.91;;;-4.01;50.47
44138;BME280;29800;55.942;37.314;2023-11-21T09:02:38;99137.94;;;-4.18;50.34
44138;BME280;29800;55.942;37.314;2023-11-21T09:05:05;99138.28;;;-4.21;50.47
44138;BME280;29800;55.942;37.314;2023-11-21T09:07:32;99135.94;;;-4.16;51.15
44138;BME280;29800;55.942;37.314;2023-11-21T09:09:58;99137.44;;;-4.14;50.57
44138;BME280;29800;55.942;37.314;2023-11-21T09:12:25;99140.09;;;-4.14;50.65
44138;BME280;29800;55.942;37.314;2023-11-21T09:14:51;99139.25;;;-4.06;50.40
44138;BME280;29800;55.942;37.314;2023-11-21T09:17:17;99146.94;;;-3.95;50.33
44138;BME280;29800;55.942;37.314;2023-11-21T09:19:44;99145.06;;;-3.86;50.42
44138;BME280;29800;55.942;37.314;2023-11-21T09:22:17;99150.53;;;-3.71;50.16
44138;BME280;29800;55.942;37.314;2023-11-21T09:24:44;99135.81;;;-3.67;49.32
44138;BME280;29800;55.942;37.314;2023-11-21T09:27:11;99141.84;;;-3.73;49.23
44138;BME280;29800;55.942;37.314;2023-11-21T09:29:37;99164.78;;;-3.95;49.92
44138;BME280;29800;55.942;37.314;2023-11-21T09:32:06;99160.47;;;-4.04;50.15
44138;BME280;29800;55.942;37.314;2023-11-21T09:34:34;99170.34;;;-4.13;50.11
44138;BME280;29800;55.942;37.314;2023-11-21T09:37:05;99172.00;;;-4.04;50.50
44138;BME280;29800;55.942;37.314;2023-11-21T09:39:34;99159.28;;;-4.02;49.83
44138;BME280;29800;55.942;37.314;2023-11-21T09:42:25;99160.78;;;-3.91;50.57
44138;BME280;29800;55.942;37.314;2023-11-21T09:45:03;99159.63;;;-3.89;50.88
44138;BME280;29800;55.942;37.314;2023-11-21T09:47:35;99161.13;;;-3.94;50.01
44138;BME280;29800;55.942;37.314;2023-11-21T09:50:05;99163.97;;;-4.04;50.65
44138;BME280;29800;55.942;37.314;2023-11-21T09:52:49;99158.28;;;-3.93;50.56
44138;BME280;29800;55.942;37.314;2023-11-21T09:55:18;99160.78;;;-3.91;50.05
44138;BME280;29800;55.942;37.314;2023-11-21T09:57:47;99161.94;;;-3.94;50.16
44138;BME280;29800;55.942;37.314;2023-11-21T10:00:15;99171.03;;;-4.11;50.35
44138;BME280;29800;55.942;37.314;2023-11-21T10:02:44;99172.66;;;-4.10;50.63
44138;BME280;29800;55.942;37.314;2023-11-21T10:05:10;99182.69;;;-4.04;50.56
44138;BME280;29800;55.942;37.314;2023-11-21T10:07:39;99184.88;;;-4.08;50.54
44138;BME280;29800;55.942;37.314;2023-11-21T10:10:07;99186.03;;;-4.02;50.94
44138;BME280;29800;55.942;37.314;2023-11-21T10:12:35;99187.22;;;-4.04;50.79
44138;BME280;29800;55.942;37.314;2023-11-21T10:15:03;99188.56;;;-4.17;50.11
44138;BME280;29800;55.942;37.314;2023-11-21T10:17:36;99189.06;;;-4.21;50.60
44138;BME280;29800;55.942;37.314;2023-11-21T10:20:11;99186.38;;;-4.13;50.92
44138;BME280;29800;55.942;37.314;2023-11-21T10:22:43;99185.88;;;-4.09;50.99
44138;BME280;29800;55.942;37.314;2023-11-21T10:25:10;99191.22;;;-4.09;50.25
44138;BME280;29800;55.942;37.314;2023-11-21T10:27:37;99190.41;;;-4.17;50.54
44138;BME280;29800;55.942;37.314;2023-11-21T10:30:08;99188.41;;;-4.23;50.27
44138;BME280;29800;55.942;37.314;2023-11-21T10:32:41;99190.06;;;-4.22;51.08
44138;BME280;29800;55.942;37.314;2023-11-21T10:35:09;99192.91;;;-4.32;50.31
44138;BME280;29800;55.942;37.314;2023-11-21T10:37:39;99192.44;;;-4.36;50.95
44138;BME280;29800;55.942;37.314;2023-11-21T10:40:09;99188.72;;;-4.35;50.79
44138;BME280;29800;55.942;37.314;2023-11-21T10:42:40;99195.44;;;-4.31;50.64
44138;BME280;29800;55.942;37.314;2023-11-21T10:45:07;99192.25;;;-4.18;50.34
44138;BME280;29800;55.942;37.314;2023-11-21T10:47:41;99193.56;;;-4.14;49.69
44138;BME280;29800;55.942;37.314;2023-11-21T10:50:08;99192.09;;;-4.25;50.27
44138;BME280;29800;55.942;37.314;2023-11-21T10:52:40;99193.75;;;-4.32;50.21
44138;BME280;29800;55.942;37.314;2023-11-21T10:55:19;99194.41;;;-4.30;50.62
44138;BME280;29800;55.942;37.314;2023-11-21T10:57:49;99193.75;;;-4.23;50.34
44138;BME280;29800;55.942;37.314;2023-11-21T11:00:17;99192.75;;;-4.31;50.81
44138;BME280;29800;55.942;37.314;2023-11-21T11:02:53;99192.25;;;-4.18;50.51
44138;BME280;29800;55.942;37.314;2023-11-21T11:05:26;99193.41;;;-4.12;49.83
44138;BME280;29800;55.942;37.314;2023-11-21T11:08:00;99196.06;;;-4.12;50.62
44138;BME280;29800;55.942;37.314;2023-11-21T11:10:29;99195.09;;;-4.11;50.21
44138;BME280;29800;55.942;37.314;2023-11-21T11:12:57;99191.53;;;-4.03;49.69
44138;BME280;29800;55.942;37.314;2023-11-21T11:15:26;99193.88;;;-3.92;49.66
44138;BME280;29800;55.942;37.314;2023-11-21T11:17:53;99201.03;;;-3.76;50.32
44138;BME280;29800;55.942;37.314;2023-11-21T11:20:27;99202.38;;;-3.72;49.71
44138;BME280;29800;55.942;37.314;2023-11-21T11:23:31;99203.69;;;-3.68;49.56
44138;BME280;29800;55.942;37.314;2023-11-21T11:26:30;99198.53;;;-3.78;49.33
44138;BME280;29800;55.942;37.314;2023-11-21T11:29:39;99199.91;;;-3.90;49.43
44138;BME280;29800;55.942;37.314;2023-11-21T11:32:21;99205.75;;;-3.86;49.14
44138;BME280;29800;55.942;37.314;2023-11-21T11:34:58;99203.91;;;-3.94;49.08
44138;BME280;29800;55.942;37.314;2023-11-21T11:37:30;99209.09;;;-4.09;49.02
44138;BME280;29800;55.942;37.314;2023-11-21T11:39:56;99214.13;;;-4.14;49.40
44138;BME280;29800;55.942;37.314;2023-11-21T11:42:22;99213.78;;;-4.11;49.24
44138;BME280;29800;55.942;37.314;2023-11-21T11:44:51;99217.44;;;-3.96;49.27
44138;BME280;29800;55.942;37.314;2023-11-21T11:47:26;99213.59;;;-3.85;49.34
44138;BME280;29800;55.942;37.314;2023-11-21T11:50:01;99219.44;;;-3.90;49.15
44138;BME280;29800;55.942;37.314;2023-11-21T11:52:41;99217.78;;;-4.15;49.55
44138;BME280;29800;55.942;37.314;2023-11-21T11:55:12;99217.78;;;-4.32;49.88
44138;BME280;29800;55.942;37.314;2023-11-21T11:57:41;99220.31;;;-4.30;50.27
44138;BME280;29800;55.942;37.314;2023-11-21T12:00:14;99227.16;;;-4.19;49.66
44138;BME280;29800;55.942;37.314;2023-11-21T12:02:59;99221.50;;;-4.16;50.26
44138;BME280;29800;55.942;37.314;2023-11-21T12:05:33;99224.31;;;-4.01;49.83
44138;BME280;29800;55.942;37.314;2023-11-21T12:08:03;99223.97;;;-3.98;49.11
44138;BME280;29800;55.942;37.314;2023-11-21T12:10:31;99225.13;;;-3.93;49.14
44138;BME280;29800;55.942;37.314;2023-11-21T12:13:02;99225.47;;;-3.96;49.13
44138;BME280;29800;55.942;37.314;2023-11-21T12:15:29;99226.47;;;-4.05;49.36
44138;BME280;29800;55.942;37.314;2023-11-21T12:17:57;99231.16;;;-4.07;49.58
44138;BME280;29800;55.942;37.314;2023-11-21T12:20:28;99227.50;;;-4.14;49.29
44138;BME280;29800;55.942;37.314;2023-11-21T12:22:59;99230.00;;;-4.21;49.17
44138;BME280;29800;55.942;37.314;2023-11-21T12:25:30;99235.50;;;-4.22;49.74
44138;BME280;29800;55.942;37.314;2023-11-21T12:28:00;99247.69;;;-4.36;49.89
44138;BME280;29800;55.942;37.314;2023-11-21T12:30:31;99242.19;;;-4.27;49.87
44138;BME280;29800;55.942;37.314;2023-11-21T12:32:59;99245.72;;;-4.18;49.52
44138;BME280;29800;55.942;37.314;2023-11-21T12:35:34;99240.69;;;-4.21;49.44
44138;BME280;29800;55.942;37.314;2023-11-21T12:38:03;99239.50;;;-4.35;50.60
44138;BME280;29800;55.942;37.314;2023-11-21T12:40:31;99234.84;;;-4.33;50.30
44138;BME280;29800;55.942;37.314;2023-11-21T12:42:59;99255.72;;;-4.20;50.19
44138;BME280;29800;55.942;37.314;2023-11-21T12:45:29;99244.53;;;-4.15;49.59
44138;BME280;29800;55.942;37.314;2023-11-21T12:48:01;99257.56;;;-4.20;49.56
44138;BME280;29800;55.942;37.314;2023-11-21T12:50:30;99249.88;;;-4.32;49.74
44138;BME280;29800;55.942;37.314;2023-11-21T12:53:10;99254.72;;;-4.35;50.12
44138;BME280;29800;55.942;37.314;2023-11-21T12:55:44;99251.88;;;-4.42;50.10